VNKTVQPR

Guest
Details From VNKT - Kathmandu Tribhuvan Intl
To VQPR - PARO
Flight Number -
Tags decoded
Created
Modified
Stats Distance 230 nm / 425 km
Max Altitude 0 ft / 0 m
Waypoints 3
Social Downloads 0
Likes 0
Share VATSIM

Download

Looking for another format? Having issues loading an existing format? Contact us
Advertisement - Login to hide

Notes

Requested: VNKT KIMTI G348 PRO VQPR Unmatched points: KIMTI G348

Route

VNKT PRO VQPR

ID Type Via Altitude Latitude Longitude Leg Dist Tot Dist Heading (true) Name
O VNKT APT - 0 ft / 0 m 27.69658˚ 85.35910˚ - 0 nm - Kathmandu Tribhuvan Intl
PRO VOR - 0 ft / 0 m 27.30037˚ 89.50513˚ 222 nm 222 nm 95° / 97° PARO VOR-DME
O VQPR APT - 0 ft / 0 m 27.40319˚ 89.42461˚ 7 nm 229 nm 325° / 325° PARO

Altitude Profile

Advertisement - Login to hide

Weather


0- 5 10 15 20 25 30 35+ Temperature / ° C

Clouds and Precipitation
Forecast for 2018-05-21 06:00 UTC. Updated 4 hours ago

Ground ~20,000 ft ~40,000 ft Winds

VNKT

Details ICAO VNKT (KTM)
Name Kathmandu Tribhuvan Intl
Region Nepal
Timezone Asia/Kathmandu (UTC+5.8)
Stats Elevation 4,390 ft / 1,338 m (AMSL)
Location 27.696583° 85.359100°
Runways 1
Magnetic Variation 0.513° E

METAR

VNKT 210920Z 24005KT 6000 RA FEW015 FEW025CB SCT030 BKN100 25/19 Q1012 NOSIG CB TO N NE E S AND W

Decode

TAF

TAF TAF VNKT 202300Z 2100/2124 VRB03KT 3000 BR FEW015 SCT030 BKN100 BECMG 2104/2105 13003KT 5000 BR FEW015 SCT030 BECMG 2107/2108 24008KT 8000 FEW020 SCT100 PROB40 2108/2112 VRB10KT 5000 -TSRA FEW025CB BKN100 BECMG 2114/2115 VRB02KT 6000 FEW015 SCT030 BKN100

Decode

Departure Runways

ID Width Length Bearing (true) Bearing (mag) Surface Threshold Offset Overrun Length
02 148 ft / 45 m 10,017 ft / 3,053 m 21.50° 20.99° Asphalt 0 ft / 0 m 0 ft / 0 m
20 148 ft / 45 m 10,017 ft / 3,053 m 201.51° 201.00° Asphalt 400 ft / 122 m 0 ft / 0 m

VQPR

Details ICAO VQPR (PBH)
Name PARO
Region Bhutan
Timezone Asia/Thimphu (UTC+6.0)
Stats Elevation 7,332 ft / 2,235 m (AMSL)
Location 27.403190° 89.424605°
Runways 1
Magnetic Variation 0.142° E

METAR

VQPR 210900Z 13008KT 9999 SCT030 BKN080 25/08 Q1016

Decode

TAF

Not found

Destination Runways

ID Width Length Bearing (true) Bearing (mag) Surface Threshold Offset Overrun Length
15 95 ft / 29 m 6,462 ft / 1,970 m 150.65° 150.51° Asphalt 0 ft / 0 m 390 ft / 119 m
33 95 ft / 29 m 6,462 ft / 1,970 m 330.65° 330.51° Asphalt 0 ft / 0 m 217 ft / 66 m

Popular Alternatives